sensor_id;sensor_type;location;lat;lon;timestamp;P1;durP1;ratioP1;P2;durP2;ratioP2
35795;SDS011;21916;52.428;13.302;2022-12-07T00:01:06;19.77;;;11.25;;
35795;SDS011;21916;52.428;13.302;2022-12-07T00:03:33;20.95;;;10.70;;
35795;SDS011;21916;52.428;13.302;2022-12-07T00:06:01;23.88;;;12.57;;
35795;SDS011;21916;52.428;13.302;2022-12-07T00:08:27;21.25;;;11.18;;
35795;SDS011;21916;52.428;13.302;2022-12-07T00:10:54;20.13;;;11.18;;
35795;SDS011;21916;52.428;13.302;2022-12-07T00:13:20;21.80;;;11.10;;
35795;SDS011;21916;52.428;13.302;2022-12-07T00:15:46;17.05;;;9.50;;
35795;SDS011;21916;52.428;13.302;2022-12-07T00:18:11;12.95;;;6.50;;
35795;SDS011;21916;52.428;13.302;2022-12-07T00:20:37;17.73;;;9.32;;
35795;SDS011;21916;52.428;13.302;2022-12-07T00:23:03;17.88;;;9.13;;
35795;SDS011;21916;52.428;13.302;2022-12-07T00:25:29;20.30;;;8.95;;
35795;SDS011;21916;52.428;13.302;2022-12-07T00:27:55;17.92;;;10.65;;
35795;SDS011;21916;52.428;13.302;2022-12-07T00:30:22;14.50;;;8.50;;
35795;SDS011;21916;52.428;13.302;2022-12-07T00:32:49;20.17;;;10.90;;
35795;SDS011;21916;52.428;13.302;2022-12-07T00:35:15;12.50;;;7.13;;
35795;SDS011;21916;52.428;13.302;2022-12-07T00:37:41;16.98;;;9.68;;
35795;SDS011;21916;52.428;13.302;2022-12-07T00:40:07;15.13;;;7.32;;
35795;SDS011;21916;52.428;13.302;2022-12-07T00:42:33;12.32;;;6.03;;
35795;SDS011;21916;52.428;13.302;2022-12-07T00:44:59;16.00;;;9.30;;
35795;SDS011;21916;52.428;13.302;2022-12-07T00:47:25;15.45;;;8.95;;
35795;SDS011;21916;52.428;13.302;2022-12-07T00:49:51;12.80;;;8.05;;
35795;SDS011;21916;52.428;13.302;2022-12-07T00:52:17;16.65;;;8.48;;
35795;SDS011;21916;52.428;13.302;2022-12-07T00:54:43;14.80;;;7.75;;
35795;SDS011;21916;52.428;13.302;2022-12-07T00:57:09;15.38;;;7.85;;
35795;SDS011;21916;52.428;13.302;2022-12-07T00:59:35;13.68;;;8.25;;
35795;SDS011;21916;52.428;13.302;2022-12-07T01:02:09;15.20;;;8.07;;
35795;SDS011;21916;52.428;13.302;2022-12-07T01:04:35;13.43;;;8.20;;
35795;SDS011;21916;52.428;13.302;2022-12-07T01:07:01;14.15;;;7.90;;
35795;SDS011;21916;52.428;13.302;2022-12-07T01:09:27;12.75;;;8.88;;
35795;SDS011;21916;52.428;13.302;2022-12-07T01:11:53;13.35;;;8.43;;
35795;SDS011;21916;52.428;13.302;2022-12-07T01:14:19;13.60;;;8.57;;
35795;SDS011;21916;52.428;13.302;2022-12-07T01:16:45;14.70;;;8.23;;
35795;SDS011;21916;52.428;13.302;2022-12-07T01:19:10;12.65;;;7.60;;
35795;SDS011;21916;52.428;13.302;2022-12-07T01:21:37;12.73;;;6.95;;
35795;SDS011;21916;52.428;13.302;2022-12-07T01:24:05;12.18;;;7.63;;
35795;SDS011;21916;52.428;13.302;2022-12-07T01:26:32;11.05;;;6.90;;
35795;SDS011;21916;52.428;13.302;2022-12-07T01:28:58;13.82;;;7.13;;
35795;SDS011;21916;52.428;13.302;2022-12-07T01:31:26;11.05;;;7.00;;
35795;SDS011;21916;52.428;13.302;2022-12-07T01:33:53;13.18;;;7.80;;
35795;SDS011;21916;52.428;13.302;2022-12-07T01:36:22;10.98;;;7.03;;
35795;SDS011;21916;52.428;13.302;2022-12-07T01:38:51;13.50;;;8.35;;
35795;SDS011;21916;52.428;13.302;2022-12-07T01:41:22;11.73;;;6.65;;
35795;SDS011;21916;52.428;13.302;2022-12-07T01:46:47;11.27;;;7.35;;
35795;SDS011;21916;52.428;13.302;2022-12-07T01:49:23;11.60;;;8.05;;
35795;SDS011;21916;52.428;13.302;2022-12-07T01:51:57;12.38;;;6.80;;
35795;SDS011;21916;52.428;13.302;2022-12-07T01:54:37;11.20;;;6.43;;
35795;SDS011;21916;52.428;13.302;2022-12-07T01:57:03;11.70;;;7.30;;
35795;SDS011;21916;52.428;13.302;2022-12-07T01:59:33;12.00;;;7.25;;
35795;SDS011;21916;52.428;13.302;2022-12-07T02:02:00;13.63;;;8.10;;
35795;SDS011;21916;52.428;13.302;2022-12-07T02:04:29;15.32;;;7.93;;
35795;SDS011;21916;52.428;13.302;2022-12-07T02:06:55;11.00;;;7.38;;
35795;SDS011;21916;52.428;13.302;2022-12-07T02:09:23;13.52;;;7.80;;
35795;SDS011;21916;52.428;13.302;2022-12-07T02:11:49;12.38;;;7.40;;
35795;SDS011;21916;52.428;13.302;2022-12-07T02:14:15;11.82;;;7.43;;
35795;SDS011;21916;52.428;13.302;2022-12-07T02:19:42;13.73;;;7.70;;
35795;SDS011;21916;52.428;13.302;2022-12-07T02:30:33;13.38;;;7.63;;
35795;SDS011;21916;52.428;13.302;2022-12-07T02:33:11;15.98;;;8.35;;
35795;SDS011;21916;52.428;13.302;2022-12-07T02:36:02;13.98;;;8.25;;
35795;SDS011;21916;52.428;13.302;2022-12-07T02:41:12;18.08;;;8.38;;
35795;SDS011;21916;52.428;13.302;2022-12-07T02:43:44;12.63;;;7.40;;
35795;SDS011;21916;52.428;13.302;2022-12-07T02:46:15;15.63;;;8.13;;
35795;SDS011;21916;52.428;13.302;2022-12-07T02:48:45;13.48;;;8.05;;
35795;SDS011;21916;52.428;13.302;2022-12-07T02:51:12;13.63;;;7.90;;
35795;SDS011;21916;52.428;13.302;2022-12-07T02:56:13;15.98;;;8.30;;
35795;SDS011;21916;52.428;13.302;2022-12-07T03:10:33;11.68;;;7.38;;
35795;SDS011;21916;52.428;13.302;2022-12-07T03:15:46;13.05;;;7.43;;
35795;SDS011;21916;52.428;13.302;2022-12-07T03:18:24;11.57;;;7.70;;
35795;SDS011;21916;52.428;13.302;2022-12-07T03:20:53;15.32;;;8.32;;
35795;SDS011;21916;52.428;13.302;2022-12-07T03:23:22;14.93;;;9.20;;
35795;SDS011;21916;52.428;13.302;2022-12-07T03:25:53;14.75;;;7.55;;
35795;SDS011;21916;52.428;13.302;2022-12-07T03:28:22;16.02;;;9.23;;
35795;SDS011;21916;52.428;13.302;2022-12-07T03:30:54;15.43;;;8.02;;
35795;SDS011;21916;52.428;13.302;2022-12-07T03:33:27;18.60;;;9.65;;
35795;SDS011;21916;52.428;13.302;2022-12-07T03:44:04;16.95;;;9.38;;
35795;SDS011;21916;52.428;13.302;2022-12-07T03:57:36;19.98;;;11.00;;
35795;SDS011;21916;52.428;13.302;2022-12-07T04:00:04;19.23;;;10.30;;
35795;SDS011;21916;52.428;13.302;2022-12-07T04:05:09;22.35;;;10.98;;
35795;SDS011;21916;52.428;13.302;2022-12-07T04:07:44;28.88;;;12.38;;
35795;SDS011;21916;52.428;13.302;2022-12-07T04:10:10;27.30;;;12.65;;
35795;SDS011;21916;52.428;13.302;2022-12-07T04:12:42;23.45;;;11.60;;
35795;SDS011;21916;52.428;13.302;2022-12-07T04:15:08;24.55;;;13.40;;
35795;SDS011;21916;52.428;13.302;2022-12-07T04:20:32;25.10;;;13.02;;
35795;SDS011;21916;52.428;13.302;2022-12-07T04:22:58;28.50;;;13.48;;
35795;SDS011;21916;52.428;13.302;2022-12-07T04:25:30;28.98;;;14.00;;
35795;SDS011;21916;52.428;13.302;2022-12-07T04:27:56;27.67;;;14.02;;
35795;SDS011;21916;52.428;13.302;2022-12-07T04:30:22;30.33;;;14.73;;
35795;SDS011;21916;52.428;13.302;2022-12-07T04:32:48;31.70;;;15.38;;
35795;SDS011;21916;52.428;13.302;2022-12-07T04:35:13;31.20;;;15.77;;
35795;SDS011;21916;52.428;13.302;2022-12-07T04:37:40;27.92;;;14.98;;
35795;SDS011;21916;52.428;13.302;2022-12-07T04:40:10;34.83;;;16.70;;
35795;SDS011;21916;52.428;13.302;2022-12-07T04:42:36;35.50;;;16.85;;
35795;SDS011;21916;52.428;13.302;2022-12-07T04:45:03;33.45;;;15.25;;
35795;SDS011;21916;52.428;13.302;2022-12-07T04:47:29;36.13;;;16.70;;
35795;SDS011;21916;52.428;13.302;2022-12-07T04:49:58;35.08;;;16.50;;
35795;SDS011;21916;52.428;13.302;2022-12-07T04:52:24;41.70;;;17.70;;
35795;SDS011;21916;52.428;13.302;2022-12-07T04:54:50;41.00;;;18.48;;
35795;SDS011;21916;52.428;13.302;2022-12-07T04:57:19;43.95;;;19.95;;
35795;SDS011;21916;52.428;13.302;2022-12-07T04:59:45;38.03;;;19.17;;
35795;SDS011;21916;52.428;13.302;2022-12-07T05:02:10;42.60;;;19.42;;
35795;SDS011;21916;52.428;13.302;2022-12-07T05:04:36;38.63;;;17.98;;
35795;SDS011;21916;52.428;13.302;2022-12-07T05:07:02;46.05;;;20.55;;
35795;SDS011;21916;52.428;13.302;2022-12-07T05:09:28;44.10;;;20.58;;
35795;SDS011;21916;52.428;13.302;2022-12-07T05:11:54;41.88;;;20.48;;
35795;SDS011;21916;52.428;13.302;2022-12-07T05:14:20;45.50;;;20.27;;
35795;SDS011;21916;52.428;13.302;2022-12-07T05:16:48;39.67;;;19.60;;
35795;SDS011;21916;52.428;13.302;2022-12-07T05:19:16;38.35;;;18.50;;
35795;SDS011;21916;52.428;13.302;2022-12-07T05:21:43;44.20;;;21.00;;
35795;SDS011;21916;52.428;13.302;2022-12-07T05:24:09;32.63;;;15.93;;
35795;SDS011;21916;52.428;13.302;2022-12-07T05:26:37;42.30;;;20.55;;
35795;SDS011;21916;52.428;13.302;2022-12-07T05:29:03;43.78;;;19.67;;
35795;SDS011;21916;52.428;13.302;2022-12-07T05:31:29;46.22;;;20.60;;
35795;SDS011;21916;52.428;13.302;2022-12-07T05:33:55;43.63;;;20.67;;
35795;SDS011;21916;52.428;13.302;2022-12-07T05:36:21;43.63;;;20.25;;
35795;SDS011;21916;52.428;13.302;2022-12-07T05:38:48;43.97;;;18.85;;
35795;SDS011;21916;52.428;13.302;2022-12-07T05:41:15;48.50;;;19.92;;
35795;SDS011;21916;52.428;13.302;2022-12-07T05:44:01;47.22;;;20.58;;
35795;SDS011;21916;52.428;13.302;2022-12-07T05:46:27;46.50;;;20.15;;
35795;SDS011;21916;52.428;13.302;2022-12-07T05:48:53;55.08;;;22.23;;
35795;SDS011;21916;52.428;13.302;2022-12-07T05:51:19;41.90;;;19.25;;
35795;SDS011;21916;52.428;13.302;2022-12-07T05:53:45;48.97;;;22.13;;
35795;SDS011;21916;52.428;13.302;2022-12-07T05:56:11;57.15;;;25.15;;
35795;SDS011;21916;52.428;13.302;2022-12-07T05:58:37;53.47;;;23.27;;
35795;SDS011;21916;52.428;13.302;2022-12-07T06:01:22;49.88;;;24.33;;
35795;SDS011;21916;52.428;13.302;2022-12-07T06:03:48;60.33;;;24.73;;
35795;SDS011;21916;52.428;13.302;2022-12-07T06:06:14;57.03;;;23.25;;
35795;SDS011;21916;52.428;13.302;2022-12-07T06:08:41;56.17;;;23.27;;
35795;SDS011;21916;52.428;13.302;2022-12-07T06:11:07;54.65;;;25.08;;
35795;SDS011;21916;52.428;13.302;2022-12-07T06:13:51;56.60;;;25.00;;
35795;SDS011;21916;52.428;13.302;2022-12-07T06:16:18;56.95;;;26.08;;
35795;SDS011;21916;52.428;13.302;2022-12-07T06:18:44;59.72;;;24.80;;
35795;SDS011;21916;52.428;13.302;2022-12-07T06:21:10;59.10;;;25.30;;
35795;SDS011;21916;52.428;13.302;2022-12-07T06:23:36;65.95;;;26.13;;
35795;SDS011;21916;52.428;13.302;2022-12-07T06:26:02;55.67;;;24.42;;
35795;SDS011;21916;52.428;13.302;2022-12-07T06:28:28;66.65;;;26.45;;
35795;SDS011;21916;52.428;13.302;2022-12-07T06:31:00;56.42;;;23.98;;
35795;SDS011;21916;52.428;13.302;2022-12-07T06:33:27;57.00;;;25.42;;
35795;SDS011;21916;52.428;13.302;2022-12-07T06:35:54;54.72;;;24.48;;
35795;SDS011;21916;52.428;13.302;2022-12-07T06:38:21;56.50;;;21.42;;
35795;SDS011;21916;52.428;13.302;2022-12-07T06:40:47;58.47;;;26.08;;
35795;SDS011;21916;52.428;13.302;2022-12-07T06:43:13;56.65;;;25.55;;
35795;SDS011;21916;52.428;13.302;2022-12-07T06:45:40;61.17;;;25.70;;
35795;SDS011;21916;52.428;13.302;2022-12-07T06:48:07;43.92;;;19.15;;
35795;SDS011;21916;52.428;13.302;2022-12-07T06:50:33;54.53;;;24.58;;
35795;SDS011;21916;52.428;13.302;2022-12-07T06:52:59;56.78;;;25.75;;
35795;SDS011;21916;52.428;13.302;2022-12-07T06:55:30;51.38;;;22.27;;
35795;SDS011;21916;52.428;13.302;2022-12-07T06:57:56;54.22;;;26.67;;
35795;SDS011;21916;52.428;13.302;2022-12-07T07:00:24;51.75;;;22.90;;
35795;SDS011;21916;52.428;13.302;2022-12-07T07:02:50;56.20;;;24.23;;
35795;SDS011;21916;52.428;13.302;2022-12-07T07:05:16;51.83;;;23.17;;
35795;SDS011;21916;52.428;13.302;2022-12-07T07:07:42;63.58;;;26.55;;
35795;SDS011;21916;52.428;13.302;2022-12-07T07:10:08;54.05;;;25.42;;
35795;SDS011;21916;52.428;13.302;2022-12-07T07:12:34;50.63;;;24.67;;
35795;SDS011;21916;52.428;13.302;2022-12-07T07:15:00;56.70;;;23.65;;
35795;SDS011;21916;52.428;13.302;2022-12-07T07:17:27;35.58;;;15.20;;
35795;SDS011;21916;52.428;13.302;2022-12-07T07:19:53;48.65;;;22.02;;
35795;SDS011;21916;52.428;13.302;2022-12-07T07:22:19;46.85;;;22.17;;
35795;SDS011;21916;52.428;13.302;2022-12-07T07:24:45;49.13;;;22.55;;
35795;SDS011;21916;52.428;13.302;2022-12-07T07:27:11;39.65;;;19.40;;
35795;SDS011;21916;52.428;13.302;2022-12-07T07:29:37;47.92;;;22.70;;
35795;SDS011;21916;52.428;13.302;2022-12-07T07:32:03;39.95;;;20.35;;
35795;SDS011;21916;52.428;13.302;2022-12-07T07:34:29;42.00;;;20.92;;
35795;SDS011;21916;52.428;13.302;2022-12-07T07:36:55;29.48;;;14.68;;
35795;SDS011;21916;52.428;13.302;2022-12-07T07:39:21;44.03;;;19.60;;
35795;SDS011;21916;52.428;13.302;2022-12-07T07:41:47;24.77;;;13.57;;
35795;SDS011;21916;52.428;13.302;2022-12-07T07:44:22;34.65;;;16.80;;
35795;SDS011;21916;52.428;13.302;2022-12-07T07:46:48;30.65;;;14.25;;
35795;SDS011;21916;52.428;13.302;2022-12-07T07:49:14;37.15;;;17.50;;
35795;SDS011;21916;52.428;13.302;2022-12-07T07:51:40;33.88;;;18.13;;
35795;SDS011;21916;52.428;13.302;2022-12-07T07:54:06;34.88;;;17.95;;
35795;SDS011;21916;52.428;13.302;2022-12-07T07:56:32;32.47;;;12.98;;
35795;SDS011;21916;52.428;13.302;2022-12-07T07:58:58;29.80;;;14.15;;
35795;SDS011;21916;52.428;13.302;2022-12-07T08:01:24;20.65;;;10.88;;
35795;SDS011;21916;52.428;13.302;2022-12-07T08:03:50;25.90;;;10.95;;
35795;SDS011;21916;52.428;13.302;2022-12-07T08:06:16;27.48;;;12.68;;
35795;SDS011;21916;52.428;13.302;2022-12-07T08:08:41;25.00;;;13.48;;
35795;SDS011;21916;52.428;13.302;2022-12-07T08:11:08;27.92;;;14.18;;
35795;SDS011;21916;52.428;13.302;2022-12-07T08:13:35;29.77;;;11.73;;
35795;SDS011;21916;52.428;13.302;2022-12-07T08:16:08;17.73;;;8.63;;
35795;SDS011;21916;52.428;13.302;2022-12-07T08:18:36;15.85;;;9.13;;
35795;SDS011;21916;52.428;13.302;2022-12-07T08:21:03;17.70;;;9.23;;
35795;SDS011;21916;52.428;13.302;2022-12-07T08:23:33;14.95;;;6.07;;
35795;SDS011;21916;52.428;13.302;2022-12-07T08:26:00;17.45;;;9.30;;
35795;SDS011;21916;52.428;13.302;2022-12-07T08:28:27;11.50;;;5.43;;
35795;SDS011;21916;52.428;13.302;2022-12-07T08:31:00;15.98;;;7.45;;
35795;SDS011;21916;52.428;13.302;2022-12-07T08:33:27;13.82;;;7.65;;
35795;SDS011;21916;52.428;13.302;2022-12-07T08:35:53;10.50;;;5.93;;
35795;SDS011;21916;52.428;13.302;2022-12-07T08:38:19;6.97;;;3.80;;
35795;SDS011;21916;52.428;13.302;2022-12-07T08:40:53;7.28;;;4.45;;
35795;SDS011;21916;52.428;13.302;2022-12-07T08:43:22;14.05;;;6.88;;
35795;SDS011;21916;52.428;13.302;2022-12-07T08:45:50;9.63;;;5.65;;
35795;SDS011;21916;52.428;13.302;2022-12-07T08:48:41;13.02;;;6.97;;
35795;SDS011;21916;52.428;13.302;2022-12-07T08:51:14;9.02;;;4.20;;
35795;SDS011;21916;52.428;13.302;2022-12-07T08:53:44;5.65;;;3.60;;
35795;SDS011;21916;52.428;13.302;2022-12-07T08:56:13;6.78;;;3.35;;
35795;SDS011;21916;52.428;13.302;2022-12-07T08:58:39;5.88;;;3.53;;
35795;SDS011;21916;52.428;13.302;2022-12-07T09:01:05;7.90;;;4.32;;
35795;SDS011;21916;52.428;13.302;2022-12-07T09:03:32;3.67;;;2.28;;
35795;SDS011;21916;52.428;13.302;2022-12-07T09:05:58;4.25;;;2.25;;
35795;SDS011;21916;52.428;13.302;2022-12-07T09:08:35;3.88;;;2.78;;
35795;SDS011;21916;52.428;13.302;2022-12-07T09:11:05;5.15;;;3.70;;
35795;SDS011;21916;52.428;13.302;2022-12-07T09:13:33;5.18;;;2.92;;
35795;SDS011;21916;52.428;13.302;2022-12-07T09:15:59;2.97;;;1.55;;
35795;SDS011;21916;52.428;13.302;2022-12-07T09:18:26;3.42;;;2.10;;
35795;SDS011;21916;52.428;13.302;2022-12-07T09:20:52;2.47;;;1.50;;
35795;SDS011;21916;52.428;13.302;2022-12-07T09:23:21;2.63;;;1.60;;
35795;SDS011;21916;52.428;13.302;2022-12-07T09:25:47;3.45;;;1.80;;
35795;SDS011;21916;52.428;13.302;2022-12-07T09:28:13;3.33;;;1.83;;
35795;SDS011;21916;52.428;13.302;2022-12-07T09:30:44;1.30;;;1.20;;
35795;SDS011;21916;52.428;13.302;2022-12-07T09:33:14;1.67;;;1.05;;
35795;SDS011;21916;52.428;13.302;2022-12-07T09:35:50;3.55;;;1.73;;
35795;SDS011;21916;52.428;13.302;2022-12-07T09:38:17;2.13;;;1.40;;
35795;SDS011;21916;52.428;13.302;2022-12-07T09:40:44;3.25;;;1.63;;
35795;SDS011;21916;52.428;13.302;2022-12-07T09:43:15;3.17;;;1.25;;
35795;SDS011;21916;52.428;13.302;2022-12-07T09:45:46;4.47;;;1.73;;
35795;SDS011;21916;52.428;13.302;2022-12-07T09:48:16;2.35;;;1.58;;
35795;SDS011;21916;52.428;13.302;2022-12-07T09:50:45;4.63;;;2.08;;
35795;SDS011;21916;52.428;13.302;2022-12-07T09:53:14;3.97;;;2.05;;
35795;SDS011;21916;52.428;13.302;2022-12-07T09:55:47;3.03;;;1.73;;
35795;SDS011;21916;52.428;13.302;2022-12-07T09:58:23;5.50;;;2.42;;
35795;SDS011;21916;52.428;13.302;2022-12-07T10:01:05;3.67;;;2.00;;
35795;SDS011;21916;52.428;13.302;2022-12-07T10:03:42;3.22;;;2.13;;
35795;SDS011;21916;52.428;13.302;2022-12-07T10:06:18;2.72;;;1.70;;
35795;SDS011;21916;52.428;13.302;2022-12-07T10:08:44;2.13;;;1.25;;
35795;SDS011;21916;52.428;13.302;2022-12-07T10:11:10;3.20;;;1.60;;
35795;SDS011;21916;52.428;13.302;2022-12-07T10:18:57;1.83;;;1.20;;
35795;SDS011;21916;52.428;13.302;2022-12-07T10:22:14;3.67;;;1.92;;
35795;SDS011;21916;52.428;13.302;2022-12-07T10:24:42;3.80;;;2.20;;
35795;SDS011;21916;52.428;13.302;2022-12-07T10:27:19;2.42;;;1.77;;
35795;SDS011;21916;52.428;13.302;2022-12-07T10:29:52;3.70;;;2.63;;
35795;SDS011;21916;52.428;13.302;2022-12-07T10:34:44;4.85;;;2.35;;
35795;SDS011;21916;52.428;13.302;2022-12-07T10:39:49;4.20;;;2.50;;
35795;SDS011;21916;52.428;13.302;2022-12-07T10:44:46;4.22;;;2.42;;
35795;SDS011;21916;52.428;13.302;2022-12-07T10:55:03;4.97;;;3.63;;
35795;SDS011;21916;52.428;13.302;2022-12-07T11:00:47;4.47;;;3.28;;
35795;SDS011;21916;52.428;13.302;2022-12-07T11:12:00;9.32;;;3.85;;
35795;SDS011;21916;52.428;13.302;2022-12-07T11:17:32;5.78;;;3.33;;
35795;SDS011;21916;52.428;13.302;2022-12-07T11:20:02;7.38;;;3.95;;
35795;SDS011;21916;52.428;13.302;2022-12-07T11:23:03;7.22;;;3.40;;
35795;SDS011;21916;52.428;13.302;2022-12-07T11:25:57;5.25;;;3.92;;
35795;SDS011;21916;52.428;13.302;2022-12-07T11:28:41;7.65;;;3.25;;
35795;SDS011;21916;52.428;13.302;2022-12-07T11:31:33;7.03;;;3.28;;
35795;SDS011;21916;52.428;13.302;2022-12-07T11:36:55;6.65;;;3.33;;
35795;SDS011;21916;52.428;13.302;2022-12-07T11:39:57;8.05;;;3.85;;
35795;SDS011;21916;52.428;13.302;2022-12-07T11:42:24;3.38;;;2.17;;
35795;SDS011;21916;52.428;13.302;2022-12-07T11:50:47;9.13;;;2.60;;
35795;SDS011;21916;52.428;13.302;2022-12-07T11:55:59;5.03;;;2.17;;
35795;SDS011;21916;52.428;13.302;2022-12-07T12:03:45;3.80;;;2.55;;
35795;SDS011;21916;52.428;13.302;2022-12-07T12:06:13;7.32;;;2.65;;
35795;SDS011;21916;52.428;13.302;2022-12-07T12:08:40;6.85;;;3.00;;
35795;SDS011;21916;52.428;13.302;2022-12-07T12:22:06;3.47;;;1.65;;
35795;SDS011;21916;52.428;13.302;2022-12-07T12:24:42;6.38;;;2.63;;
35795;SDS011;21916;52.428;13.302;2022-12-07T12:27:44;12.02;;;2.72;;
35795;SDS011;21916;52.428;13.302;2022-12-07T12:30:05;3.42;;;1.83;;
35795;SDS011;21916;52.428;13.302;2022-12-07T12:32:48;7.43;;;2.95;;
35795;SDS011;21916;52.428;13.302;2022-12-07T12:35:56;5.53;;;2.67;;
35795;SDS011;21916;52.428;13.302;2022-12-07T12:40:55;5.32;;;2.25;;
35795;SDS011;21916;52.428;13.302;2022-12-07T12:51:47;8.88;;;3.53;;
35795;SDS011;21916;52.428;13.302;2022-12-07T12:56:53;6.35;;;3.50;;
35795;SDS011;21916;52.428;13.302;2022-12-07T12:59:31;7.60;;;2.15;;
35795;SDS011;21916;52.428;13.302;2022-12-07T13:20:54;4.30;;;1.88;;
35795;SDS011;21916;52.428;13.302;2022-12-07T13:28:40;4.10;;;1.55;;
35795;SDS011;21916;52.428;13.302;2022-12-07T13:34:00;4.90;;;1.88;;
35795;SDS011;21916;52.428;13.302;2022-12-07T13:36:32;7.75;;;2.05;;
35795;SDS011;21916;52.428;13.302;2022-12-07T13:41:43;7.15;;;2.15;;
35795;SDS011;21916;52.428;13.302;2022-12-07T13:44:14;5.45;;;1.60;;
35795;SDS011;21916;52.428;13.302;2022-12-07T13:46:47;9.95;;;2.20;;
35795;SDS011;21916;52.428;13.302;2022-12-07T13:49:30;5.43;;;1.67;;
35795;SDS011;21916;52.428;13.302;2022-12-07T13:54:46;3.55;;;1.95;;
35795;SDS011;21916;52.428;13.302;2022-12-07T13:57:34;4.07;;;1.67;;
35795;SDS011;21916;52.428;13.302;2022-12-07T14:00:05;6.20;;;2.55;;
35795;SDS011;21916;52.428;13.302;2022-12-07T14:02:55;5.57;;;2.15;;
35795;SDS011;21916;52.428;13.302;2022-12-07T14:05:42;3.95;;;1.73;;
35795;SDS011;21916;52.428;13.302;2022-12-07T14:18:51;6.95;;;2.65;;
35795;SDS011;21916;52.428;13.302;2022-12-07T14:21:17;3.40;;;1.38;;
35795;SDS011;21916;52.428;13.302;2022-12-07T14:24:02;4.88;;;2.65;;
35795;SDS011;21916;52.428;13.302;2022-12-07T14:26:28;8.98;;;2.30;;
35795;SDS011;21916;52.428;13.302;2022-12-07T14:28:54;4.32;;;2.20;;
35795;SDS011;21916;52.428;13.302;2022-12-07T14:31:52;7.63;;;2.05;;
35795;SDS011;21916;52.428;13.302;2022-12-07T14:34:20;7.78;;;3.10;;
35795;SDS011;21916;52.428;13.302;2022-12-07T14:36:47;6.88;;;2.53;;
35795;SDS011;21916;52.428;13.302;2022-12-07T14:39:13;6.75;;;2.30;;
35795;SDS011;21916;52.428;13.302;2022-12-07T14:41:39;3.38;;;1.45;;
35795;SDS011;21916;52.428;13.302;2022-12-07T14:44:18;3.33;;;1.50;;
35795;SDS011;21916;52.428;13.302;2022-12-07T14:46:46;10.20;;;2.78;;
35795;SDS011;21916;52.428;13.302;2022-12-07T14:49:13;6.90;;;2.78;;
35795;SDS011;21916;52.428;13.302;2022-12-07T14:51:39;9.23;;;2.15;;
35795;SDS011;21916;52.428;13.302;2022-12-07T14:54:11;8.55;;;1.98;;
35795;SDS011;21916;52.428;13.302;2022-12-07T14:56:42;8.13;;;2.63;;
35795;SDS011;21916;52.428;13.302;2022-12-07T14:59:09;8.63;;;2.92;;
35795;SDS011;21916;52.428;13.302;2022-12-07T15:01:36;4.43;;;2.53;;
35795;SDS011;21916;52.428;13.302;2022-12-07T15:04:02;3.55;;;1.73;;
35795;SDS011;21916;52.428;13.302;2022-12-07T15:06:29;5.63;;;2.47;;
35795;SDS011;21916;52.428;13.302;2022-12-07T15:08:55;7.78;;;2.50;;
35795;SDS011;21916;52.428;13.302;2022-12-07T15:11:21;9.15;;;3.10;;
35795;SDS011;21916;52.428;13.302;2022-12-07T15:13:47;10.27;;;2.53;;
35795;SDS011;21916;52.428;13.302;2022-12-07T15:16:32;7.03;;;2.30;;
35795;SDS011;21916;52.428;13.302;2022-12-07T15:18:58;8.50;;;2.38;;
35795;SDS011;21916;52.428;13.302;2022-12-07T15:21:24;7.13;;;2.30;;
35795;SDS011;21916;52.428;13.302;2022-12-07T15:23:50;6.28;;;2.38;;
35795;SDS011;21916;52.428;13.302;2022-12-07T15:26:16;8.77;;;2.85;;
35795;SDS011;21916;52.428;13.302;2022-12-07T15:28:42;8.38;;;3.10;;
35795;SDS011;21916;52.428;13.302;2022-12-07T15:31:15;9.02;;;3.17;;
35795;SDS011;21916;52.428;13.302;2022-12-07T15:33:42;6.03;;;2.80;;
35795;SDS011;21916;52.428;13.302;2022-12-07T15:36:12;8.95;;;2.55;;
35795;SDS011;21916;52.428;13.302;2022-12-07T15:38:49;13.23;;;2.67;;
35795;SDS011;21916;52.428;13.302;2022-12-07T15:41:15;9.48;;;2.53;;
35795;SDS011;21916;52.428;13.302;2022-12-07T15:43:41;10.65;;;2.65;;
35795;SDS011;21916;52.428;13.302;2022-12-07T15:46:33;5.88;;;2.05;;
35795;SDS011;21916;52.428;13.302;2022-12-07T15:49:01;9.27;;;2.97;;
35795;SDS011;21916;52.428;13.302;2022-12-07T15:51:27;4.50;;;2.35;;
35795;SDS011;21916;52.428;13.302;2022-12-07T15:53:53;7.20;;;2.08;;
35795;SDS011;21916;52.428;13.302;2022-12-07T15:56:19;5.88;;;2.75;;
35795;SDS011;21916;52.428;13.302;2022-12-07T15:58:45;12.90;;;3.60;;
35795;SDS011;21916;52.428;13.302;2022-12-07T16:01:18;4.63;;;2.03;;
35795;SDS011;21916;52.428;13.302;2022-12-07T16:03:45;8.63;;;2.28;;
35795;SDS011;21916;52.428;13.302;2022-12-07T16:06:11;7.93;;;2.85;;
35795;SDS011;21916;52.428;13.302;2022-12-07T16:08:42;11.73;;;3.55;;
35795;SDS011;21916;52.428;13.302;2022-12-07T16:11:09;9.95;;;3.20;;
35795;SDS011;21916;52.428;13.302;2022-12-07T16:13:35;8.52;;;2.72;;
35795;SDS011;21916;52.428;13.302;2022-12-07T16:16:02;4.82;;;2.25;;
35795;SDS011;21916;52.428;13.302;2022-12-07T16:18:30;8.50;;;3.20;;
35795;SDS011;21916;52.428;13.302;2022-12-07T16:20:56;4.88;;;1.88;;
35795;SDS011;21916;52.428;13.302;2022-12-07T16:23:21;12.15;;;2.80;;
35795;SDS011;21916;52.428;13.302;2022-12-07T16:25:47;11.32;;;2.50;;
35795;SDS011;21916;52.428;13.302;2022-12-07T16:28:13;9.82;;;3.17;;
35795;SDS011;21916;52.428;13.302;2022-12-07T16:30:39;9.13;;;4.40;;
35795;SDS011;21916;52.428;13.302;2022-12-07T16:33:05;8.70;;;3.20;;
35795;SDS011;21916;52.428;13.302;2022-12-07T16:35:32;4.88;;;2.15;;
35795;SDS011;21916;52.428;13.302;2022-12-07T16:37:58;10.30;;;3.10;;
35795;SDS011;21916;52.428;13.302;2022-12-07T16:40:24;8.40;;;2.72;;
35795;SDS011;21916;52.428;13.302;2022-12-07T16:42:50;7.80;;;2.40;;
35795;SDS011;21916;52.428;13.302;2022-12-07T16:45:17;9.18;;;2.67;;
35795;SDS011;21916;52.428;13.302;2022-12-07T16:47:43;11.45;;;3.08;;
35795;SDS011;21916;52.428;13.302;2022-12-07T16:50:10;9.35;;;2.25;;
35795;SDS011;21916;52.428;13.302;2022-12-07T16:52:36;8.68;;;3.30;;
35795;SDS011;21916;52.428;13.302;2022-12-07T16:55:06;6.30;;;2.88;;
35795;SDS011;21916;52.428;13.302;2022-12-07T16:57:34;6.13;;;2.60;;
35795;SDS011;21916;52.428;13.302;2022-12-07T16:59:59;5.70;;;1.90;;
35795;SDS011;21916;52.428;13.302;2022-12-07T17:02:29;7.82;;;3.58;;
35795;SDS011;21916;52.428;13.302;2022-12-07T17:04:55;5.18;;;2.60;;
35795;SDS011;21916;52.428;13.302;2022-12-07T17:07:21;9.07;;;2.85;;
35795;SDS011;21916;52.428;13.302;2022-12-07T17:09:47;9.73;;;2.72;;
35795;SDS011;21916;52.428;13.302;2022-12-07T17:12:13;6.60;;;2.95;;
35795;SDS011;21916;52.428;13.302;2022-12-07T17:14:39;11.40;;;2.67;;
35795;SDS011;21916;52.428;13.302;2022-12-07T17:17:25;9.65;;;3.00;;
35795;SDS011;21916;52.428;13.302;2022-12-07T17:19:51;8.95;;;2.85;;
35795;SDS011;21916;52.428;13.302;2022-12-07T17:22:17;6.00;;;2.10;;
35795;SDS011;21916;52.428;13.302;2022-12-07T17:24:43;8.88;;;3.00;;
35795;SDS011;21916;52.428;13.302;2022-12-07T17:27:09;9.63;;;3.38;;
35795;SDS011;21916;52.428;13.302;2022-12-07T17:29:36;7.57;;;3.30;;
35795;SDS011;21916;52.428;13.302;2022-12-07T17:32:02;5.63;;;2.85;;
35795;SDS011;21916;52.428;13.302;2022-12-07T17:34:28;6.95;;;3.85;;